Tri-State, Milton J. Ferguson Field Huntington US
ICAO: KHTS
IATA: HTS
Category: Large
Scheduled Services: Yes

Elevation: 828 ft
TransAlt. 18000 ft.

Airport Communications:
HUNTINGTON APP/DEP:119.75
ATIS:125.2
CLNC DEL:118.05
GND:121.9
ELKINS RDO:122.2
HUNTINGTON TWR:118.5
UNICOM:122.95

KHTS Zoom In..

Runways:

(A) RW 12 length 7017 ft width 150 ft
ILS 109.90 / hdg 118

(B) RW 30 length 7017 ft width 150 ft
ILS 108.70 / hdg 298

Location; KHTS
Day. 17 / Time. 07.43 Zulu
* Altimeter: 29.92
* Temperature: 23° c. 73.4°f.
* Wind from: 220° Speed 03 kn.
Dewpoint: 22° c.
Visibility: 10 Statute Miles.
Clouds: Scattered 800 ft.
Clouds: Broken 4100 ft.
Clouds: Overcast 6000 ft.

KHTS 170743Z 22003KT 10SM SCT008 BKN041 OVC060 23/22 A2992 RMK AO2 T02330217


Wind From 220°
Speed 03 kn.

 
 
jpsmedia.com for Web Design worldairports.se 2018   terms of use